sensor_id;sensor_type;location;lat;lon;timestamp;P1;durP1;ratioP1;P2;durP2;ratioP2
75768;SDS011;64379;48.888;8.330;2022-11-25T00:00:51;10.25;;;3.55;;
75768;SDS011;64379;48.888;8.330;2022-11-25T00:03:17;13.35;;;4.90;;
75768;SDS011;64379;48.888;8.330;2022-11-25T00:05:43;19.55;;;7.03;;
75768;SDS011;64379;48.888;8.330;2022-11-25T00:08:08;21.70;;;7.60;;
75768;SDS011;64379;48.888;8.330;2022-11-25T00:10:34;22.85;;;8.68;;
75768;SDS011;64379;48.888;8.330;2022-11-25T00:12:59;24.02;;;9.05;;
75768;SDS011;64379;48.888;8.330;2022-11-25T00:15:25;24.88;;;9.95;;
75768;SDS011;64379;48.888;8.330;2022-11-25T00:17:51;25.00;;;9.82;;
75768;SDS011;64379;48.888;8.330;2022-11-25T00:20:16;20.33;;;8.80;;
75768;SDS011;64379;48.888;8.330;2022-11-25T00:22:46;18.88;;;7.93;;
75768;SDS011;64379;48.888;8.330;2022-11-25T00:25:12;21.85;;;7.88;;
75768;SDS011;64379;48.888;8.330;2022-11-25T00:27:38;22.02;;;8.88;;
75768;SDS011;64379;48.888;8.330;2022-11-25T00:30:04;19.88;;;7.65;;
75768;SDS011;64379;48.888;8.330;2022-11-25T00:32:30;20.15;;;8.55;;
75768;SDS011;64379;48.888;8.330;2022-11-25T00:34:56;22.92;;;8.48;;
75768;SDS011;64379;48.888;8.330;2022-11-25T00:37:21;17.55;;;6.35;;
75768;SDS011;64379;48.888;8.330;2022-11-25T00:39:47;14.30;;;5.57;;
75768;SDS011;64379;48.888;8.330;2022-11-25T00:42:12;15.60;;;5.75;;
75768;SDS011;64379;48.888;8.330;2022-11-25T00:44:57;15.23;;;5.55;;
75768;SDS011;64379;48.888;8.330;2022-11-25T00:47:22;11.55;;;4.55;;
75768;SDS011;64379;48.888;8.330;2022-11-25T00:49:49;11.90;;;4.00;;
75768;SDS011;64379;48.888;8.330;2022-11-25T00:52:19;9.50;;;3.67;;
75768;SDS011;64379;48.888;8.330;2022-11-25T00:54:46;10.40;;;4.10;;
75768;SDS011;64379;48.888;8.330;2022-11-25T00:57:13;11.90;;;4.38;;
75768;SDS011;64379;48.888;8.330;2022-11-25T00:59:40;12.82;;;4.53;;
75768;SDS011;64379;48.888;8.330;2022-11-25T01:02:06;10.30;;;4.07;;
75768;SDS011;64379;48.888;8.330;2022-11-25T01:04:32;11.52;;;4.00;;
75768;SDS011;64379;48.888;8.330;2022-11-25T01:06:58;9.05;;;4.00;;
75768;SDS011;64379;48.888;8.330;2022-11-25T01:09:24;13.48;;;5.05;;
75768;SDS011;64379;48.888;8.330;2022-11-25T01:11:51;15.18;;;6.15;;
75768;SDS011;64379;48.888;8.330;2022-11-25T01:14:18;15.88;;;5.53;;
75768;SDS011;64379;48.888;8.330;2022-11-25T01:16:44;16.60;;;5.88;;
75768;SDS011;64379;48.888;8.330;2022-11-25T01:19:10;16.30;;;5.65;;
75768;SDS011;64379;48.888;8.330;2022-11-25T01:21:36;12.68;;;4.32;;
75768;SDS011;64379;48.888;8.330;2022-11-25T01:24:02;13.73;;;4.45;;
75768;SDS011;64379;48.888;8.330;2022-11-25T01:26:29;14.82;;;4.15;;
75768;SDS011;64379;48.888;8.330;2022-11-25T01:29:00;16.27;;;4.72;;
75768;SDS011;64379;48.888;8.330;2022-11-25T01:31:28;12.43;;;4.53;;
75768;SDS011;64379;48.888;8.330;2022-11-25T01:33:56;9.77;;;3.55;;
75768;SDS011;64379;48.888;8.330;2022-11-25T01:36:23;8.77;;;3.67;;
75768;SDS011;64379;48.888;8.330;2022-11-25T01:38:50;10.75;;;4.47;;
75768;SDS011;64379;48.888;8.330;2022-11-25T01:41:17;10.35;;;4.75;;
75768;SDS011;64379;48.888;8.330;2022-11-25T01:44:00;11.43;;;4.40;;
75768;SDS011;64379;48.888;8.330;2022-11-25T01:46:27;12.35;;;3.85;;
75768;SDS011;64379;48.888;8.330;2022-11-25T01:48:59;11.18;;;3.67;;
75768;SDS011;64379;48.888;8.330;2022-11-25T01:51:36;10.68;;;3.50;;
75768;SDS011;64379;48.888;8.330;2022-11-25T01:54:07;12.00;;;3.60;;
75768;SDS011;64379;48.888;8.330;2022-11-25T01:56:37;8.98;;;3.60;;
75768;SDS011;64379;48.888;8.330;2022-11-25T01:59:06;9.55;;;3.28;;
75768;SDS011;64379;48.888;8.330;2022-11-25T02:01:32;8.60;;;3.05;;
75768;SDS011;64379;48.888;8.330;2022-11-25T02:03:58;8.70;;;2.78;;
75768;SDS011;64379;48.888;8.330;2022-11-25T02:06:27;8.40;;;2.30;;
75768;SDS011;64379;48.888;8.330;2022-11-25T02:08:57;6.22;;;2.15;;
75768;SDS011;64379;48.888;8.330;2022-11-25T02:11:28;6.40;;;2.25;;
75768;SDS011;64379;48.888;8.330;2022-11-25T02:13:55;5.70;;;2.28;;
75768;SDS011;64379;48.888;8.330;2022-11-25T02:16:23;8.60;;;2.20;;
75768;SDS011;64379;48.888;8.330;2022-11-25T02:18:48;6.45;;;2.70;;
75768;SDS011;64379;48.888;8.330;2022-11-25T02:21:16;6.15;;;2.00;;
75768;SDS011;64379;48.888;8.330;2022-11-25T02:23:48;6.90;;;2.30;;
75768;SDS011;64379;48.888;8.330;2022-11-25T02:26:21;7.85;;;2.30;;
75768;SDS011;64379;48.888;8.330;2022-11-25T02:28:47;7.20;;;2.40;;
75768;SDS011;64379;48.888;8.330;2022-11-25T02:31:18;6.30;;;2.10;;
75768;SDS011;64379;48.888;8.330;2022-11-25T02:33:45;8.00;;;2.28;;
75768;SDS011;64379;48.888;8.330;2022-11-25T02:36:12;6.80;;;2.08;;
75768;SDS011;64379;48.888;8.330;2022-11-25T02:38:47;6.85;;;2.33;;
75768;SDS011;64379;48.888;8.330;2022-11-25T02:43:56;8.93;;;2.90;;
75768;SDS011;64379;48.888;8.330;2022-11-25T02:46:22;6.90;;;2.47;;
75768;SDS011;64379;48.888;8.330;2022-11-25T02:48:54;5.63;;;2.03;;
75768;SDS011;64379;48.888;8.330;2022-11-25T02:51:22;8.30;;;2.13;;
75768;SDS011;64379;48.888;8.330;2022-11-25T02:53:49;7.30;;;2.20;;
75768;SDS011;64379;48.888;8.330;2022-11-25T02:56:16;4.60;;;1.92;;
75768;SDS011;64379;48.888;8.330;2022-11-25T02:58:42;6.85;;;2.33;;
75768;SDS011;64379;48.888;8.330;2022-11-25T03:01:11;4.93;;;2.22;;
75768;SDS011;64379;48.888;8.330;2022-11-25T03:03:37;6.30;;;2.00;;
75768;SDS011;64379;48.888;8.330;2022-11-25T03:06:03;7.40;;;2.50;;
75768;SDS011;64379;48.888;8.330;2022-11-25T03:08:29;8.43;;;2.38;;
75768;SDS011;64379;48.888;8.330;2022-11-25T03:10:54;7.05;;;2.38;;
75768;SDS011;64379;48.888;8.330;2022-11-25T03:13:20;6.63;;;2.30;;
75768;SDS011;64379;48.888;8.330;2022-11-25T03:15:46;6.53;;;2.15;;
75768;SDS011;64379;48.888;8.330;2022-11-25T03:18:12;4.82;;;2.08;;
75768;SDS011;64379;48.888;8.330;2022-11-25T03:20:38;7.28;;;2.30;;
75768;SDS011;64379;48.888;8.330;2022-11-25T03:23:03;8.18;;;2.30;;
75768;SDS011;64379;48.888;8.330;2022-11-25T03:25:30;6.82;;;2.08;;
75768;SDS011;64379;48.888;8.330;2022-11-25T03:27:56;9.13;;;2.60;;
75768;SDS011;64379;48.888;8.330;2022-11-25T03:30:22;10.40;;;2.65;;
75768;SDS011;64379;48.888;8.330;2022-11-25T03:32:49;7.55;;;2.20;;
75768;SDS011;64379;48.888;8.330;2022-11-25T03:35:15;8.35;;;2.10;;
75768;SDS011;64379;48.888;8.330;2022-11-25T03:37:41;5.20;;;2.08;;
75768;SDS011;64379;48.888;8.330;2022-11-25T03:40:08;7.20;;;2.28;;
75768;SDS011;64379;48.888;8.330;2022-11-25T03:42:35;7.88;;;2.35;;
75768;SDS011;64379;48.888;8.330;2022-11-25T03:45:01;10.98;;;2.60;;
75768;SDS011;64379;48.888;8.330;2022-11-25T03:47:27;6.13;;;2.10;;
75768;SDS011;64379;48.888;8.330;2022-11-25T03:49:53;5.75;;;2.00;;
75768;SDS011;64379;48.888;8.330;2022-11-25T03:52:18;9.45;;;2.63;;
75768;SDS011;64379;48.888;8.330;2022-11-25T03:54:44;5.05;;;2.20;;
75768;SDS011;64379;48.888;8.330;2022-11-25T03:57:10;9.85;;;2.20;;
75768;SDS011;64379;48.888;8.330;2022-11-25T03:59:36;6.25;;;2.20;;
75768;SDS011;64379;48.888;8.330;2022-11-25T04:02:01;7.68;;;2.30;;
75768;SDS011;64379;48.888;8.330;2022-11-25T04:04:27;6.80;;;2.35;;
75768;SDS011;64379;48.888;8.330;2022-11-25T04:06:53;6.30;;;2.10;;
75768;SDS011;64379;48.888;8.330;2022-11-25T04:09:19;6.53;;;2.15;;
75768;SDS011;64379;48.888;8.330;2022-11-25T04:11:44;6.38;;;2.28;;
75768;SDS011;64379;48.888;8.330;2022-11-25T04:14:29;9.13;;;2.58;;
75768;SDS011;64379;48.888;8.330;2022-11-25T04:16:55;8.10;;;2.47;;
75768;SDS011;64379;48.888;8.330;2022-11-25T04:19:20;7.47;;;2.05;;
75768;SDS011;64379;48.888;8.330;2022-11-25T04:21:46;5.90;;;1.90;;
75768;SDS011;64379;48.888;8.330;2022-11-25T04:24:12;6.55;;;2.05;;
75768;SDS011;64379;48.888;8.330;2022-11-25T04:26:37;5.38;;;1.80;;
75768;SDS011;64379;48.888;8.330;2022-11-25T04:29:03;6.22;;;1.42;;
75768;SDS011;64379;48.888;8.330;2022-11-25T04:31:28;4.97;;;1.50;;
75768;SDS011;64379;48.888;8.330;2022-11-25T04:33:54;6.57;;;2.10;;
75768;SDS011;64379;48.888;8.330;2022-11-25T04:36:20;5.85;;;1.77;;
75768;SDS011;64379;48.888;8.330;2022-11-25T04:38:45;6.75;;;1.45;;
75768;SDS011;64379;48.888;8.330;2022-11-25T04:41:11;7.22;;;1.50;;
75768;SDS011;64379;48.888;8.330;2022-11-25T04:43:37;7.47;;;1.55;;
75768;SDS011;64379;48.888;8.330;2022-11-25T04:46:02;3.55;;;1.30;;
75768;SDS011;64379;48.888;8.330;2022-11-25T04:48:28;5.55;;;1.30;;
75768;SDS011;64379;48.888;8.330;2022-11-25T04:50:54;3.53;;;1.35;;
75768;SDS011;64379;48.888;8.330;2022-11-25T04:53:20;5.75;;;1.50;;
75768;SDS011;64379;48.888;8.330;2022-11-25T04:55:45;7.18;;;1.40;;
75768;SDS011;64379;48.888;8.330;2022-11-25T04:58:11;8.98;;;1.50;;
75768;SDS011;64379;48.888;8.330;2022-11-25T05:00:37;4.38;;;1.30;;
75768;SDS011;64379;48.888;8.330;2022-11-25T05:03:02;4.97;;;1.58;;
75768;SDS011;64379;48.888;8.330;2022-11-25T05:05:29;7.32;;;1.90;;
75768;SDS011;64379;48.888;8.330;2022-11-25T05:07:55;8.70;;;1.98;;
75768;SDS011;64379;48.888;8.330;2022-11-25T05:10:20;7.63;;;1.83;;
75768;SDS011;64379;48.888;8.330;2022-11-25T05:12:46;5.18;;;1.70;;
75768;SDS011;64379;48.888;8.330;2022-11-25T05:15:12;3.53;;;1.40;;
75768;SDS011;64379;48.888;8.330;2022-11-25T05:17:37;7.05;;;2.10;;
75768;SDS011;64379;48.888;8.330;2022-11-25T05:20:04;6.75;;;1.75;;
75768;SDS011;64379;48.888;8.330;2022-11-25T05:22:31;7.55;;;1.80;;
75768;SDS011;64379;48.888;8.330;2022-11-25T05:24:57;5.80;;;1.80;;
75768;SDS011;64379;48.888;8.330;2022-11-25T05:27:24;7.80;;;1.73;;
75768;SDS011;64379;48.888;8.330;2022-11-25T05:29:50;8.45;;;1.80;;
75768;SDS011;64379;48.888;8.330;2022-11-25T05:32:16;5.82;;;1.52;;
75768;SDS011;64379;48.888;8.330;2022-11-25T05:34:42;5.85;;;1.70;;
75768;SDS011;64379;48.888;8.330;2022-11-25T05:37:08;5.25;;;1.70;;
75768;SDS011;64379;48.888;8.330;2022-11-25T05:39:36;5.78;;;1.60;;
75768;SDS011;64379;48.888;8.330;2022-11-25T05:42:02;4.47;;;1.67;;
75768;SDS011;64379;48.888;8.330;2022-11-25T05:44:28;6.07;;;1.77;;
75768;SDS011;64379;48.888;8.330;2022-11-25T05:46:54;7.65;;;2.20;;
75768;SDS011;64379;48.888;8.330;2022-11-25T05:49:19;8.85;;;2.10;;
75768;SDS011;64379;48.888;8.330;2022-11-25T05:51:45;7.22;;;2.10;;
75768;SDS011;64379;48.888;8.330;2022-11-25T05:54:11;11.20;;;2.10;;
75768;SDS011;64379;48.888;8.330;2022-11-25T05:56:37;7.88;;;1.95;;
75768;SDS011;64379;48.888;8.330;2022-11-25T05:59:03;10.15;;;3.10;;
75768;SDS011;64379;48.888;8.330;2022-11-25T06:01:29;27.85;;;10.98;;
75768;SDS011;64379;48.888;8.330;2022-11-25T06:03:58;16.15;;;6.32;;
75768;SDS011;64379;48.888;8.330;2022-11-25T06:06:24;13.15;;;5.15;;
75768;SDS011;64379;48.888;8.330;2022-11-25T06:08:49;16.63;;;5.75;;
75768;SDS011;64379;48.888;8.330;2022-11-25T06:11:16;8.20;;;3.50;;
75768;SDS011;64379;48.888;8.330;2022-11-25T06:13:41;8.73;;;3.30;;
75768;SDS011;64379;48.888;8.330;2022-11-25T06:16:14;7.28;;;2.90;;
75768;SDS011;64379;48.888;8.330;2022-11-25T06:18:45;14.05;;;5.22;;
75768;SDS011;64379;48.888;8.330;2022-11-25T06:21:11;16.73;;;6.55;;
75768;SDS011;64379;48.888;8.330;2022-11-25T06:23:37;17.15;;;5.90;;
75768;SDS011;64379;48.888;8.330;2022-11-25T06:28:43;20.90;;;6.68;;
75768;SDS011;64379;48.888;8.330;2022-11-25T06:31:16;20.45;;;8.70;;
75768;SDS011;64379;48.888;8.330;2022-11-25T06:33:48;24.45;;;9.55;;
75768;SDS011;64379;48.888;8.330;2022-11-25T06:36:15;20.75;;;9.40;;
75768;SDS011;64379;48.888;8.330;2022-11-25T06:38:46;16.40;;;7.47;;
75768;SDS011;64379;48.888;8.330;2022-11-25T06:41:13;16.50;;;7.22;;
75768;SDS011;64379;48.888;8.330;2022-11-25T06:43:39;16.23;;;7.20;;
75768;SDS011;64379;48.888;8.330;2022-11-25T06:46:06;17.75;;;7.70;;
75768;SDS011;64379;48.888;8.330;2022-11-25T06:48:33;18.45;;;6.90;;
75768;SDS011;64379;48.888;8.330;2022-11-25T06:51:01;15.40;;;5.35;;
75768;SDS011;64379;48.888;8.330;2022-11-25T06:53:29;11.88;;;4.88;;
75768;SDS011;64379;48.888;8.330;2022-11-25T06:58:30;11.50;;;4.80;;
75768;SDS011;64379;48.888;8.330;2022-11-25T07:00:59;10.25;;;4.00;;
75768;SDS011;64379;48.888;8.330;2022-11-25T07:03:29;12.88;;;4.97;;
75768;SDS011;64379;48.888;8.330;2022-11-25T07:05:56;14.27;;;5.25;;
75768;SDS011;64379;48.888;8.330;2022-11-25T07:08:22;15.93;;;5.95;;
75768;SDS011;64379;48.888;8.330;2022-11-25T07:10:49;13.45;;;5.25;;
75768;SDS011;64379;48.888;8.330;2022-11-25T07:13:15;14.32;;;6.03;;
75768;SDS011;64379;48.888;8.330;2022-11-25T07:15:40;16.17;;;5.20;;
75768;SDS011;64379;48.888;8.330;2022-11-25T07:18:06;11.80;;;4.90;;
75768;SDS011;64379;48.888;8.330;2022-11-25T07:20:32;13.25;;;5.30;;
75768;SDS011;64379;48.888;8.330;2022-11-25T07:22:57;14.52;;;6.20;;
75768;SDS011;64379;48.888;8.330;2022-11-25T07:25:23;13.63;;;5.40;;
75768;SDS011;64379;48.888;8.330;2022-11-25T07:27:48;10.10;;;4.10;;
75768;SDS011;64379;48.888;8.330;2022-11-25T07:30:14;9.02;;;3.40;;
75768;SDS011;64379;48.888;8.330;2022-11-25T07:32:40;9.18;;;3.25;;
75768;SDS011;64379;48.888;8.330;2022-11-25T07:35:05;9.15;;;2.85;;
75768;SDS011;64379;48.888;8.330;2022-11-25T07:37:32;9.65;;;3.20;;
75768;SDS011;64379;48.888;8.330;2022-11-25T07:39:57;8.45;;;3.40;;
75768;SDS011;64379;48.888;8.330;2022-11-25T07:42:23;11.68;;;3.22;;
75768;SDS011;64379;48.888;8.330;2022-11-25T07:44:48;8.10;;;3.08;;
75768;SDS011;64379;48.888;8.330;2022-11-25T07:47:14;7.75;;;2.75;;
75768;SDS011;64379;48.888;8.330;2022-11-25T07:49:40;9.77;;;3.40;;
75768;SDS011;64379;48.888;8.330;2022-11-25T07:52:05;6.38;;;3.05;;
75768;SDS011;64379;48.888;8.330;2022-11-25T07:54:31;13.85;;;3.95;;
75768;SDS011;64379;48.888;8.330;2022-11-25T07:56:57;15.63;;;5.70;;
75768;SDS011;64379;48.888;8.330;2022-11-25T07:59:22;11.90;;;4.80;;
75768;SDS011;64379;48.888;8.330;2022-11-25T08:01:49;14.30;;;5.30;;
75768;SDS011;64379;48.888;8.330;2022-11-25T08:04:16;12.43;;;5.32;;
75768;SDS011;64379;48.888;8.330;2022-11-25T08:06:42;15.70;;;5.95;;
75768;SDS011;64379;48.888;8.330;2022-11-25T08:09:10;14.13;;;5.13;;
75768;SDS011;64379;48.888;8.330;2022-11-25T08:11:38;10.57;;;4.38;;
75768;SDS011;64379;48.888;8.330;2022-11-25T08:14:05;11.55;;;4.22;;
75768;SDS011;64379;48.888;8.330;2022-11-25T08:16:31;11.98;;;5.15;;
75768;SDS011;64379;48.888;8.330;2022-11-25T08:18:58;12.90;;;4.85;;
75768;SDS011;64379;48.888;8.330;2022-11-25T08:21:25;14.73;;;5.47;;
75768;SDS011;64379;48.888;8.330;2022-11-25T08:23:51;11.88;;;5.07;;
75768;SDS011;64379;48.888;8.330;2022-11-25T08:26:27;9.73;;;3.90;;
75768;SDS011;64379;48.888;8.330;2022-11-25T08:28:58;7.13;;;2.10;;
75768;SDS011;64379;48.888;8.330;2022-11-25T08:31:25;8.90;;;2.20;;
75768;SDS011;64379;48.888;8.330;2022-11-25T08:33:53;9.57;;;2.47;;
75768;SDS011;64379;48.888;8.330;2022-11-25T08:36:20;10.55;;;3.70;;
75768;SDS011;64379;48.888;8.330;2022-11-25T08:38:47;12.13;;;4.10;;
75768;SDS011;64379;48.888;8.330;2022-11-25T08:41:22;13.80;;;5.30;;
75768;SDS011;64379;48.888;8.330;2022-11-25T08:43:49;29.15;;;9.30;;
75768;SDS011;64379;48.888;8.330;2022-11-25T08:46:17;22.98;;;7.22;;
75768;SDS011;64379;48.888;8.330;2022-11-25T08:48:45;14.05;;;5.45;;
75768;SDS011;64379;48.888;8.330;2022-11-25T08:51:15;13.15;;;4.28;;
75768;SDS011;64379;48.888;8.330;2022-11-25T08:53:47;13.30;;;5.00;;
75768;SDS011;64379;48.888;8.330;2022-11-25T08:56:15;11.05;;;3.53;;
75768;SDS011;64379;48.888;8.330;2022-11-25T08:58:42;8.23;;;3.40;;
75768;SDS011;64379;48.888;8.330;2022-11-25T09:01:08;10.77;;;4.35;;
75768;SDS011;64379;48.888;8.330;2022-11-25T09:03:36;15.63;;;5.78;;
75768;SDS011;64379;48.888;8.330;2022-11-25T09:06:04;16.88;;;6.25;;
75768;SDS011;64379;48.888;8.330;2022-11-25T09:08:30;16.95;;;6.00;;
75768;SDS011;64379;48.888;8.330;2022-11-25T09:10:56;13.27;;;5.20;;
75768;SDS011;64379;48.888;8.330;2022-11-25T09:13:23;7.95;;;3.30;;
75768;SDS011;64379;48.888;8.330;2022-11-25T09:15:48;8.98;;;3.60;;
75768;SDS011;64379;48.888;8.330;2022-11-25T09:18:14;7.28;;;2.28;;
75768;SDS011;64379;48.888;8.330;2022-11-25T09:20:42;8.85;;;2.38;;
75768;SDS011;64379;48.888;8.330;2022-11-25T09:23:08;10.10;;;2.88;;
75768;SDS011;64379;48.888;8.330;2022-11-25T09:25:34;10.32;;;2.90;;
75768;SDS011;64379;48.888;8.330;2022-11-25T09:28:00;11.02;;;2.80;;
75768;SDS011;64379;48.888;8.330;2022-11-25T09:30:26;9.82;;;3.08;;
75768;SDS011;64379;48.888;8.330;2022-11-25T09:32:52;8.40;;;2.88;;
75768;SDS011;64379;48.888;8.330;2022-11-25T09:35:19;8.13;;;2.97;;
75768;SDS011;64379;48.888;8.330;2022-11-25T09:37:46;10.10;;;3.13;;
75768;SDS011;64379;48.888;8.330;2022-11-25T09:40:34;6.97;;;2.72;;
75768;SDS011;64379;48.888;8.330;2022-11-25T09:43:17;7.88;;;2.50;;
75768;SDS011;64379;48.888;8.330;2022-11-25T09:49:08;10.57;;;2.83;;
75768;SDS011;64379;48.888;8.330;2022-11-25T09:52:02;8.10;;;3.17;;
75768;SDS011;64379;48.888;8.330;2022-11-25T10:00:36;7.75;;;2.72;;
75768;SDS011;64379;48.888;8.330;2022-11-25T10:03:22;9.60;;;2.90;;
75768;SDS011;64379;48.888;8.330;2022-11-25T10:06:20;7.60;;;2.88;;
75768;SDS011;64379;48.888;8.330;2022-11-25T10:09:31;10.98;;;3.10;;
75768;SDS011;64379;48.888;8.330;2022-11-25T10:14:27;10.48;;;3.45;;
75768;SDS011;64379;48.888;8.330;2022-11-25T10:17:06;9.82;;;3.50;;
75768;SDS011;64379;48.888;8.330;2022-11-25T10:20:02;12.32;;;3.08;;
75768;SDS011;64379;48.888;8.330;2022-11-25T10:22:36;8.18;;;2.67;;
75768;SDS011;64379;48.888;8.330;2022-11-25T10:25:19;9.05;;;3.13;;
75768;SDS011;64379;48.888;8.330;2022-11-25T10:33:31;7.57;;;3.10;;
75768;SDS011;64379;48.888;8.330;2022-11-25T10:36:08;7.43;;;3.05;;
75768;SDS011;64379;48.888;8.330;2022-11-25T10:38:43;9.60;;;3.38;;
75768;SDS011;64379;48.888;8.330;2022-11-25T10:41:22;8.65;;;3.45;;
75768;SDS011;64379;48.888;8.330;2022-11-25T10:43:51;7.75;;;3.28;;
75768;SDS011;64379;48.888;8.330;2022-11-25T10:56:42;11.18;;;3.72;;
75768;SDS011;64379;48.888;8.330;2022-11-25T10:59:13;12.57;;;4.32;;
75768;SDS011;64379;48.888;8.330;2022-11-25T11:01:51;14.15;;;4.57;;
75768;SDS011;64379;48.888;8.330;2022-11-25T11:04:17;12.43;;;4.28;;
75768;SDS011;64379;48.888;8.330;2022-11-25T11:06:45;11.75;;;4.35;;
75768;SDS011;64379;48.888;8.330;2022-11-25T11:11:57;13.20;;;3.88;;
75768;SDS011;64379;48.888;8.330;2022-11-25T11:14:39;10.32;;;3.67;;
75768;SDS011;64379;48.888;8.330;2022-11-25T11:17:07;9.32;;;2.78;;
75768;SDS011;64379;48.888;8.330;2022-11-25T11:22:32;7.82;;;2.75;;
75768;SDS011;64379;48.888;8.330;2022-11-25T11:25:30;7.63;;;2.78;;
75768;SDS011;64379;48.888;8.330;2022-11-25T11:27:59;8.73;;;2.90;;
75768;SDS011;64379;48.888;8.330;2022-11-25T11:30:29;10.52;;;3.03;;
75768;SDS011;64379;48.888;8.330;2022-11-25T11:35:24;10.15;;;3.00;;
75768;SDS011;64379;48.888;8.330;2022-11-25T11:37:53;7.32;;;2.53;;
75768;SDS011;64379;48.888;8.330;2022-11-25T11:40:29;8.18;;;2.92;;
75768;SDS011;64379;48.888;8.330;2022-11-25T11:53:59;9.13;;;2.72;;
75768;SDS011;64379;48.888;8.330;2022-11-25T12:05:12;8.65;;;2.50;;
75768;SDS011;64379;48.888;8.330;2022-11-25T12:10:44;6.30;;;2.35;;
75768;SDS011;64379;48.888;8.330;2022-11-25T12:15:54;9.30;;;2.60;;
75768;SDS011;64379;48.888;8.330;2022-11-25T12:29:19;12.20;;;2.72;;
75768;SDS011;64379;48.888;8.330;2022-11-25T12:35:00;7.60;;;2.47;;
75768;SDS011;64379;48.888;8.330;2022-11-25T12:40:34;8.50;;;2.30;;
75768;SDS011;64379;48.888;8.330;2022-11-25T12:43:11;7.05;;;2.42;;
75768;SDS011;64379;48.888;8.330;2022-11-25T12:45:44;11.32;;;3.08;;
75768;SDS011;64379;48.888;8.330;2022-11-25T12:48:13;10.50;;;2.63;;
75768;SDS011;64379;48.888;8.330;2022-11-25T12:53:31;8.25;;;2.22;;
75768;SDS011;64379;48.888;8.330;2022-11-25T12:56:19;13.27;;;2.97;;
75768;SDS011;64379;48.888;8.330;2022-11-25T13:15:48;7.13;;;2.33;;
75768;SDS011;64379;48.888;8.330;2022-11-25T13:18:18;8.43;;;2.78;;
75768;SDS011;64379;48.888;8.330;2022-11-25T13:20:47;11.07;;;2.42;;
75768;SDS011;64379;48.888;8.330;2022-11-25T13:25:42;8.80;;;2.20;;
75768;SDS011;64379;48.888;8.330;2022-11-25T13:36:41;7.90;;;2.42;;
75768;SDS011;64379;48.888;8.330;2022-11-25T13:39:13;13.13;;;3.42;;
75768;SDS011;64379;48.888;8.330;2022-11-25T13:41:57;9.38;;;2.08;;
75768;SDS011;64379;48.888;8.330;2022-11-25T13:44:52;8.73;;;2.20;;
75768;SDS011;64379;48.888;8.330;2022-11-25T13:54:54;7.05;;;1.88;;
75768;SDS011;64379;48.888;8.330;2022-11-25T14:02:33;11.35;;;2.20;;
75768;SDS011;64379;48.888;8.330;2022-11-25T14:13:37;12.88;;;2.83;;
75768;SDS011;64379;48.888;8.330;2022-11-25T14:24:50;10.73;;;2.00;;
75768;SDS011;64379;48.888;8.330;2022-11-25T14:27:25;8.10;;;1.92;;
75768;SDS011;64379;48.888;8.330;2022-11-25T14:32:38;9.40;;;1.88;;
75768;SDS011;64379;48.888;8.330;2022-11-25T14:35:13;15.18;;;2.53;;
75768;SDS011;64379;48.888;8.330;2022-11-25T14:40:22;7.38;;;1.92;;
75768;SDS011;64379;48.888;8.330;2022-11-25T14:42:49;11.25;;;2.00;;
75768;SDS011;64379;48.888;8.330;2022-11-25T14:45:28;11.23;;;2.00;;
75768;SDS011;64379;48.888;8.330;2022-11-25T14:47:57;8.65;;;1.60;;
75768;SDS011;64379;48.888;8.330;2022-11-25T14:50:53;13.73;;;2.28;;
75768;SDS011;64379;48.888;8.330;2022-11-25T14:53:19;7.38;;;1.73;;
75768;SDS011;64379;48.888;8.330;2022-11-25T14:55:45;10.52;;;1.60;;
75768;SDS011;64379;48.888;8.330;2022-11-25T14:58:12;10.27;;;1.77;;
75768;SDS011;64379;48.888;8.330;2022-11-25T15:00:52;7.47;;;1.70;;
75768;SDS011;64379;48.888;8.330;2022-11-25T15:03:30;10.38;;;1.95;;
75768;SDS011;64379;48.888;8.330;2022-11-25T15:06:04;9.80;;;2.28;;
75768;SDS011;64379;48.888;8.330;2022-11-25T15:08:37;10.25;;;1.73;;
75768;SDS011;64379;48.888;8.330;2022-11-25T15:11:05;11.48;;;2.20;;
75768;SDS011;64379;48.888;8.330;2022-11-25T15:13:46;9.20;;;2.03;;
75768;SDS011;64379;48.888;8.330;2022-11-25T15:16:18;13.32;;;2.85;;
75768;SDS011;64379;48.888;8.330;2022-11-25T15:21:12;8.93;;;1.80;;
75768;SDS011;64379;48.888;8.330;2022-11-25T15:23:39;13.48;;;2.67;;
75768;SDS011;64379;48.888;8.330;2022-11-25T15:26:21;8.65;;;2.20;;
75768;SDS011;64379;48.888;8.330;2022-11-25T15:31:27;13.45;;;2.40;;
75768;SDS011;64379;48.888;8.330;2022-11-25T15:36:22;7.47;;;2.00;;
75768;SDS011;64379;48.888;8.330;2022-11-25T15:38:48;7.97;;;2.33;;
75768;SDS011;64379;48.888;8.330;2022-11-25T15:41:16;14.35;;;3.40;;
75768;SDS011;64379;48.888;8.330;2022-11-25T15:43:45;11.48;;;2.22;;
75768;SDS011;64379;48.888;8.330;2022-11-25T15:48:39;8.98;;;2.38;;
75768;SDS011;64379;48.888;8.330;2022-11-25T15:57:01;12.02;;;3.78;;
75768;SDS011;64379;48.888;8.330;2022-11-25T16:10:20;9.52;;;2.13;;
75768;SDS011;64379;48.888;8.330;2022-11-25T16:18:12;12.38;;;2.40;;
75768;SDS011;64379;48.888;8.330;2022-11-25T16:20:49;12.90;;;3.15;;
75768;SDS011;64379;48.888;8.330;2022-11-25T16:23:18;10.45;;;3.35;;
75768;SDS011;64379;48.888;8.330;2022-11-25T16:26:29;16.08;;;4.00;;
75768;SDS011;64379;48.888;8.330;2022-11-25T16:28:38;18.20;;;4.82;;
75768;SDS011;64379;48.888;8.330;2022-11-25T16:31:15;14.07;;;3.85;;
75768;SDS011;64379;48.888;8.330;2022-11-25T16:33:41;11.70;;;3.47;;
75768;SDS011;64379;48.888;8.330;2022-11-25T16:36:07;8.77;;;3.00;;
75768;SDS011;64379;48.888;8.330;2022-11-25T16:38:33;10.75;;;3.00;;
75768;SDS011;64379;48.888;8.330;2022-11-25T16:40:59;11.63;;;2.65;;
75768;SDS011;64379;48.888;8.330;2022-11-25T16:43:32;9.27;;;2.50;;
75768;SDS011;64379;48.888;8.330;2022-11-25T16:45:57;7.85;;;2.28;;
75768;SDS011;64379;48.888;8.330;2022-11-25T16:48:24;11.73;;;2.53;;
75768;SDS011;64379;48.888;8.330;2022-11-25T16:50:50;12.90;;;2.63;;
75768;SDS011;64379;48.888;8.330;2022-11-25T16:53:15;13.98;;;3.20;;
75768;SDS011;64379;48.888;8.330;2022-11-25T16:55:43;11.48;;;2.70;;
75768;SDS011;64379;48.888;8.330;2022-11-25T16:58:17;12.93;;;2.70;;
75768;SDS011;64379;48.888;8.330;2022-11-25T17:00:49;13.50;;;2.92;;
75768;SDS011;64379;48.888;8.330;2022-11-25T17:03:17;12.55;;;2.65;;
75768;SDS011;64379;48.888;8.330;2022-11-25T17:05:43;11.18;;;2.42;;
75768;SDS011;64379;48.888;8.330;2022-11-25T17:08:11;9.85;;;2.40;;
75768;SDS011;64379;48.888;8.330;2022-11-25T17:10:37;7.68;;;2.08;;
75768;SDS011;64379;48.888;8.330;2022-11-25T17:13:04;10.85;;;2.10;;
75768;SDS011;64379;48.888;8.330;2022-11-25T17:15:33;10.43;;;2.63;;
75768;SDS011;64379;48.888;8.330;2022-11-25T17:18:02;11.18;;;2.80;;
75768;SDS011;64379;48.888;8.330;2022-11-25T17:20:30;11.35;;;2.45;;
75768;SDS011;64379;48.888;8.330;2022-11-25T17:22:56;10.57;;;2.10;;
75768;SDS011;64379;48.888;8.330;2022-11-25T17:25:23;10.30;;;2.13;;
75768;SDS011;64379;48.888;8.330;2022-11-25T17:27:50;11.32;;;2.30;;
75768;SDS011;64379;48.888;8.330;2022-11-25T17:30:24;9.65;;;2.40;;
75768;SDS011;64379;48.888;8.330;2022-11-25T17:32:53;8.00;;;2.13;;
75768;SDS011;64379;48.888;8.330;2022-11-25T17:35:23;7.78;;;2.20;;
75768;SDS011;64379;48.888;8.330;2022-11-25T17:37:49;9.90;;;2.40;;
75768;SDS011;64379;48.888;8.330;2022-11-25T17:40:14;10.25;;;2.13;;
75768;SDS011;64379;48.888;8.330;2022-11-25T17:42:40;10.65;;;2.25;;
75768;SDS011;64379;48.888;8.330;2022-11-25T17:45:13;11.35;;;2.78;;
75768;SDS011;64379;48.888;8.330;2022-11-25T17:47:45;10.80;;;2.17;;
75768;SDS011;64379;48.888;8.330;2022-11-25T17:50:18;12.80;;;2.47;;
75768;SDS011;64379;48.888;8.330;2022-11-25T17:52:45;15.70;;;2.70;;
75768;SDS011;64379;48.888;8.330;2022-11-25T17:55:11;12.98;;;2.65;;